Aérodrome :
LOGIN :

S'inscrire | Disclaimer

   EN    FR    IT 

 










Légende :    VFR   VFR Marginal   IFR   IFR Intensif   IFR Très Intensif
Visi : 
Plafond : 
>= 8 km
>= 3000ft
5 à 8 km
1000 à 3000 ft
1500m à 5 km
500 à 1000 ft
800 à 1500m
200 à 500 ft
< 800m
< 200 ft
Symboles :   Orages  Brouillard  Fortes neiges  Fortes précipitations  Vent > 20 kt
SIGMETs :   Divers  Orages  Givrage  Turbulence  Onde Orograph.  Cendres Volcan.






- Altitude de l'aérodrome : 197 ft
- Code IATA : XOG


LFMO - Orange

DERNIER METAR :
  • 310130Z AUTO 05003KT 040V100 CAVOK 07/07 Q1025 TEMPO 0100 FG

METARs EXPIRÉS :
  • 310100Z AUTO 02002KT CAVOK 08/07 Q1025 BECMG 0500 FG
  • 310030Z AUTO 02005KT CAVOK 07/06 Q1025 BECMG 0500 FG
  • 310000Z AUTO VRB02KT CAVOK 08/07 Q1025 BECMG 0500 FG
  • 302330Z AUTO 00000KT CAVOK 09/08 Q1025 BECMG 0500 FG
  • 302300Z AUTO 08002KT CAVOK 09/07 Q1025 BECMG 3000 BR

TAF TAF LFMO
Valide du 30 à 21h jusqu'au 31 à 21h UTC


302000Z 3021/3121 VRB02KT CAVOK TX21/3115Z TN08/3103Z
BECMG 3021/3023 3000 BR
BECMG 3101/3103 0500 FG
PROB40
TEMPO 3103/3107 0100 FG
BECMG 3107/3108 8000 NSW BKN003
BECMG 3108/3110 NSC
BECMG 3119/3121 4000 BR



MET'MAP, la Météo Aéronautique d'un coup d'oeil ! - Copyright ORBIFLY Décembre 2007 - Disclaimer

ORBIFLY MET'MAP TEAM :

Programmation & Développement : Alexandra Zaïnal
Sur une idée originale de : Baudouin d'Aumeries
Assistance à la programmation : Marc-Olivier Méhu
Soutien technique & logistique : Manuel Goepfert

Contact : metmap@orbifly.com




SOURCES & CREDITS :

   NOAA